Butte, Nebraska
Current Conditions -  °F | °C
As of 12:35 AM on Thursday 27 Nov 2014 (Local Time) from KONL Reporting Station
Overcast Overcast  
Wind Chill: 18°   Ceiling: 4500
Heat Index: 18°   Visibility: 10mi
Dew Point: 11°   Wind: 3mph
Humidity: 75%   Direction: 100°E
Pressure: 30.42"   Gusts: NA
Location:  42.91°N, 98.85°W
Report Text: KONL 270635Z AUTO 10003KT 10SM OVC045 M08/M11 A3042 RMK AO2 T10771114
Loading
Personal Weather Stations






























Interactive Weather Map New forecast layout! Learn more

10-Day Weather Forecast

Advertisements
Track Severe Weather on mobile